Time;durP1;ratioP1;P1;durP2;ratioP2;P2;SDS_P1;SDS_P2;PMS_P1;PMS_P2;Temp;Humidity;BMP_temperature;BMP_pressure;BME280_temperature;BME280_humidity;BME280_pressure;Samples;Min_cycle;Max_cycle;Signal;HPM_P1;HPM_P2
2023/10/12 00:01:59;;;;;;;3.15;0.82;;;;;;;;;;6308183;22;20374;-84
2023/10/12 00:04:27;;;;;;;2.00;0.60;;;;;;;;;;6309374;22;20064;-83
2023/10/12 00:06:53;;;;;;;0.98;0.30;;;;;;;;;;6281878;22;20015;-84
2023/10/12 00:09:25;;;;;;;2.50;0.60;;;;;;;;;;6292183;22;20041;-84
2023/10/12 00:12:09;;;;;;;5.32;0.70;;;;;;;;;;6275628;22;20011;-84
2023/10/12 00:14:35;;;;;;;5.38;1.05;;;;;;;;;;6300610;22;19995;-84
2023/10/12 00:17:05;;;;;;;4.20;0.73;;;;;;;;;;6299329;22;20018;-84
2023/10/12 00:19:31;;;;;;;2.90;1.15;;;;;;;;;;6298413;22;20011;-83
2023/10/12 00:22:01;;;;;;;2.78;0.65;;;;;;;;;;6272179;22;20035;-83
2023/10/12 00:24:27;;;;;;;1.13;0.60;;;;;;;;;;6288073;22;20008;-83
2023/10/12 00:26:54;;;;;;;2.63;0.52;;;;;;;;;;6287461;22;20566;-83
2023/10/12 00:29:21;;;;;;;3.10;0.95;;;;;;;;;;6261676;22;20007;-83
2023/10/12 00:31:49;;;;;;;2.13;0.60;;;;;;;;;;6287363;22;20018;-83
2023/10/12 00:34:15;;;;;;;2.75;0.80;;;;;;;;;;6286569;22;20029;-83
2023/10/12 00:36:45;;;;;;;3.17;0.57;;;;;;;;;;6315222;22;20015;-83
2023/10/12 00:39:12;;;;;;;2.40;0.60;;;;;;;;;;6313620;22;20144;-83
2023/10/12 00:41:44;;;;;;;2.28;0.60;;;;;;;;;;6261386;22;20050;-83
2023/10/12 00:44:10;;;;;;;2.33;0.70;;;;;;;;;;6313138;22;20015;-83
2023/10/12 00:51:54;;;;;;;2.58;0.65;;;;;;;;;;6314649;22;20019;-83
2023/10/12 00:57:03;;;;;;;3.10;0.82;;;;;;;;;;6313062;22;20015;-83
2023/10/12 00:59:35;;;;;;;3.50;0.70;;;;;;;;;;6259195;22;20072;-83
2023/10/12 01:02:16;;;;;;;2.05;1.52;;;;;;;;;;6313514;22;20030;-83
2023/10/12 01:04:43;;;;;;;1.95;0.68;;;;;;;;;;6315463;22;20007;-83
2023/10/12 01:07:12;;;;;;;2.85;0.93;;;;;;;;;;6314880;22;20043;-83
2023/10/12 01:09:43;;;;;;;3.88;0.70;;;;;;;;;;6288351;22;20029;-83
2023/10/12 01:12:13;;;;;;;2.53;0.55;;;;;;;;;;6289836;22;20041;-83
2023/10/12 01:14:43;;;;;;;4.70;0.65;;;;;;;;;;6292337;22;20082;-83
2023/10/12 01:17:34;;;;;;;3.88;0.70;;;;;;;;;;6318753;22;20332;-83
2023/10/12 01:19:57;;;;;;;2.22;0.68;;;;;;;;;;6290567;22;20019;-83
2023/10/12 01:22:25;;;;;;;1.70;0.77;;;;;;;;;;6267767;22;20015;-83
2023/10/12 01:27:21;;;;;;;3.13;0.50;;;;;;;;;;6316936;22;20019;-83
2023/10/12 01:29:47;;;;;;;1.52;0.50;;;;;;;;;;6318483;22;20011;-83
2023/10/12 01:34:44;;;;;;;2.80;0.60;;;;;;;;;;6290296;22;20023;-83
2023/10/12 01:37:22;;;;;;;1.90;0.73;;;;;;;;;;6289761;22;20080;-83
2023/10/12 01:42:24;;;;;;;2.15;0.70;;;;;;;;;;6289572;22;20083;-83
2023/10/12 01:44:54;;;;;;;4.18;0.70;;;;;;;;;;6288681;22;20012;-83
2023/10/12 01:47:20;;;;;;;3.17;0.70;;;;;;;;;;6290746;22;20399;-83
2023/10/12 01:49:48;;;;;;;4.22;0.60;;;;;;;;;;6292289;22;20015;-83
2023/10/12 01:52:14;;;;;;;2.35;0.77;;;;;;;;;;6290725;22;20015;-83
2023/10/12 01:54:44;;;;;;;2.90;0.85;;;;;;;;;;6291818;22;20067;-83
2023/10/12 01:57:10;;;;;;;2.58;0.60;;;;;;;;;;6319019;22;20007;-83
2023/10/12 01:59:36;;;;;;;2.22;0.75;;;;;;;;;;6293078;22;20015;-83
2023/10/12 02:02:13;;;;;;;2.80;0.63;;;;;;;;;;6291218;22;20017;-83
2023/10/12 02:04:40;;;;;;;2.17;1.30;;;;;;;;;;6320146;22;20329;-83
2023/10/12 02:07:07;;;;;;;1.13;0.43;;;;;;;;;;6319962;22;20015;-83
2023/10/12 02:09:34;;;;;;;2.72;0.70;;;;;;;;;;6318336;22;20040;-83
2023/10/12 02:12:11;;;;;;;3.95;0.70;;;;;;;;;;6288661;22;20041;-83
2023/10/12 02:14:40;;;;;;;3.05;0.73;;;;;;;;;;6288716;22;20042;-83
2023/10/12 02:17:08;;;;;;;3.20;0.77;;;;;;;;;;6314679;22;20037;-83
2023/10/12 02:19:43;;;;;;;3.55;0.77;;;;;;;;;;6315179;22;20015;-83
2023/10/12 02:22:28;;;;;;;3.15;0.80;;;;;;;;;;6312429;22;20019;-83
2023/10/12 02:25:01;;;;;;;4.15;1.00;;;;;;;;;;6311945;22;20042;-83
2023/10/12 02:27:27;;;;;;;1.55;0.65;;;;;;;;;;6311937;22;20016;-83
2023/10/12 02:29:56;;;;;;;3.22;0.88;;;;;;;;;;6285412;22;20019;-83
2023/10/12 02:32:25;;;;;;;2.25;0.82;;;;;;;;;;6285172;22;20351;-82
2023/10/12 02:35:00;;;;;;;3.50;1.25;;;;;;;;;;6313753;22;20482;-82
2023/10/12 02:37:28;;;;;;;1.35;0.75;;;;;;;;;;6285781;22;20011;-83
2023/10/12 02:39:54;;;;;;;5.78;0.90;;;;;;;;;;6285424;22;20012;-83
2023/10/12 02:42:38;;;;;;;2.70;0.82;;;;;;;;;;6315519;22;20054;-83
2023/10/12 02:45:17;;;;;;;4.28;1.05;;;;;;;;;;6315702;22;20015;-83
2023/10/12 02:47:45;;;;;;;7.10;1.00;;;;;;;;;;6292327;22;20108;-83
2023/10/12 02:52:38;;;;;;;4.32;0.82;;;;;;;;;;6290931;22;20026;-83
2023/10/12 02:55:18;;;;;;;2.85;0.73;;;;;;;;;;6289665;22;20022;-83
2023/10/12 02:57:53;;;;;;;4.38;0.93;;;;;;;;;;6290944;22;20389;-83
2023/10/12 03:00:21;;;;;;;3.60;0.80;;;;;;;;;;6291029;22;20055;-83
2023/10/12 03:02:52;;;;;;;4.40;0.80;;;;;;;;;;6290877;22;20011;-83
2023/10/12 03:05:30;;;;;;;3.05;1.15;;;;;;;;;;6290284;22;20016;-83
2023/10/12 03:08:05;;;;;;;3.92;1.13;;;;;;;;;;6315154;22;20015;-83
2023/10/12 03:10:31;;;;;;;0.98;0.60;;;;;;;;;;6315749;22;20039;-83
2023/10/12 03:13:04;;;;;;;2.95;0.90;;;;;;;;;;6316690;22;20015;-83
2023/10/12 03:15:47;;;;;;;2.75;1.10;;;;;;;;;;6315425;22;20011;-83
2023/10/12 03:18:13;;;;;;;1.95;0.70;;;;;;;;;;6313864;22;20007;-83
2023/10/12 03:20:52;;;;;;;2.17;0.80;;;;;;;;;;6314805;22;20037;-83
2023/10/12 03:23:19;;;;;;;4.95;1.13;;;;;;;;;;6313916;22;20012;-82
2023/10/12 03:25:46;;;;;;;2.10;0.80;;;;;;;;;;6316566;22;20018;-82
2023/10/12 03:28:13;;;;;;;2.33;1.00;;;;;;;;;;6314636;22;20045;-82
2023/10/12 03:30:52;;;;;;;3.78;1.35;;;;;;;;;;6314699;22;20074;-82
2023/10/12 03:33:19;;;;;;;1.58;0.80;;;;;;;;;;6257511;22;20019;-82
2023/10/12 03:38:33;;;;;;;4.95;0.98;;;;;;;;;;6310838;22;20461;-82
2023/10/12 03:43:48;;;;;;;1.92;0.90;;;;;;;;;;6311096;22;20012;-82
2023/10/12 03:46:26;;;;;;;1.20;0.70;;;;;;;;;;6282125;22;20023;-82
2023/10/12 03:49:09;;;;;;;3.72;1.13;;;;;;;;;;6283355;22;20400;-82
2023/10/12 03:51:41;;;;;;;2.78;0.95;;;;;;;;;;6282388;22;20019;-82
2023/10/12 03:54:26;;;;;;;6.22;1.45;;;;;;;;;;6282289;22;20015;-82
2023/10/12 03:56:56;;;;;;;2.72;0.85;;;;;;;;;;6283171;22;20391;-82
2023/10/12 03:59:43;;;;;;;;;;;;;;;;;;6283778;22;20336;-82
2023/10/12 04:02:14;;;;;;;2.65;0.77;;;;;;;;;;6284131;22;19925;-82
2023/10/12 04:04:46;;;;;;;3.15;1.02;;;;;;;;;;6312905;22;20447;-82
2023/10/12 04:07:19;;;;;;;2.45;0.73;;;;;;;;;;6311892;22;20008;-82
2023/10/12 04:09:52;;;;;;;3.50;0.77;;;;;;;;;;6311982;22;20012;-82
2023/10/12 04:14:54;;;;;;;3.88;0.88;;;;;;;;;;6312084;22;20063;-82
2023/10/12 04:23:03;;;;;;;4.53;1.08;;;;;;;;;;6284189;22;20443;-82
2023/10/12 04:28:10;;;;;;;2.58;1.00;;;;;;;;;;6311533;22;20061;-82
2023/10/12 04:33:24;;;;;;;3.55;0.95;;;;;;;;;;6311666;22;20019;-82
2023/10/12 04:38:28;;;;;;;4.93;1.15;;;;;;;;;;6312931;22;20020;-82
2023/10/12 04:41:22;;;;;;;3.83;1.00;;;;;;;;;;6312544;22;20079;-82
2023/10/12 04:44:06;;;;;;;;;;;;;;;;;;6313058;22;20078;-83
2023/10/12 04:46:47;;;;;;;2.67;0.77;;;;;;;;;;6312204;22;19968;-82
2023/10/12 04:49:53;;;;;;;2.78;1.20;;;;;;;;;;6283269;22;20019;-82
2023/10/12 04:52:16;;;;;;;2.10;0.75;;;;;;;;;;6283325;22;20072;-82
2023/10/12 04:57:31;;;;;;;2.22;0.82;;;;;;;;;;6284580;22;20015;-82
2023/10/12 05:00:10;;;;;;;4.35;0.77;;;;;;;;;;6283235;22;20011;-82
2023/10/12 05:07:59;;;;;;;3.63;0.90;;;;;;;;;;6284220;22;20019;-82
2023/10/12 05:10:28;;;;;;;1.80;0.82;;;;;;;;;;6312069;22;20018;-82
2023/10/12 05:13:03;;;;;;;1.83;0.80;;;;;;;;;;6284538;22;20050;-82
2023/10/12 05:15:39;;;;;;;3.10;1.08;;;;;;;;;;6313106;22;20007;-82
2023/10/12 05:18:06;;;;;;;4.07;0.95;;;;;;;;;;6311629;22;20019;-82
2023/10/12 05:20:32;;;;;;;5.45;1.05;;;;;;;;;;6312360;22;20015;-82
2023/10/12 05:22:58;;;;;;;2.03;0.85;;;;;;;;;;6284874;22;20041;-82
2023/10/12 05:25:33;;;;;;;5.40;1.17;;;;;;;;;;6284327;22;20015;-82
2023/10/12 05:28:09;;;;;;;3.95;0.70;;;;;;;;;;6284593;22;20023;-82
2023/10/12 05:30:37;;;;;;;3.75;1.00;;;;;;;;;;6286911;22;20015;-82
2023/10/12 05:33:05;;;;;;;4.72;0.73;;;;;;;;;;6286631;22;20015;-82
2023/10/12 05:35:52;;;;;;;2.03;0.63;;;;;;;;;;6262457;22;20065;-82
2023/10/12 05:38:18;;;;;;;2.90;0.60;;;;;;;;;;6314501;22;20019;-82
2023/10/12 05:40:53;;;;;;;2.67;1.13;;;;;;;;;;6313396;22;20046;-82
2023/10/12 05:43:22;;;;;;;2.28;1.02;;;;;;;;;;6312767;22;20011;-82
2023/10/12 05:45:48;;;;;;;4.20;1.20;;;;;;;;;;6285678;22;20011;-82
2023/10/12 05:48:19;;;;;;;5.95;1.05;;;;;;;;;;6285069;22;20092;-82
2023/10/12 05:50:49;;;;;;;2.47;0.98;;;;;;;;;;6313882;22;20016;-82
2023/10/12 05:53:16;;;;;;;3.03;1.42;;;;;;;;;;6312692;22;20038;-82
2023/10/12 05:55:44;;;;;;;3.25;0.93;;;;;;;;;;6312514;22;20023;-82
2023/10/12 05:58:15;;;;;;;4.50;1.20;;;;;;;;;;6285233;22;20015;-82
2023/10/12 06:00:45;;;;;;;3.25;1.20;;;;;;;;;;6286033;22;20057;-82
2023/10/12 06:03:15;;;;;;;3.10;1.02;;;;;;;;;;6285689;22;20006;-82
2023/10/12 06:05:44;;;;;;;3.22;1.00;;;;;;;;;;6288943;22;20046;-82
2023/10/12 06:08:12;;;;;;;5.70;1.13;;;;;;;;;;6324832;22;20022;-82
2023/10/12 06:10:41;;;;;;;2.63;1.10;;;;;;;;;;6297464;22;20019;-82
2023/10/12 06:13:12;;;;;;;2.92;1.08;;;;;;;;;;6297206;22;20018;-82
2023/10/12 06:15:53;;;;;;;4.18;1.30;;;;;;;;;;6298401;22;20317;-82
2023/10/12 06:18:25;;;;;;;4.43;0.90;;;;;;;;;;6326252;22;20020;-82
2023/10/12 06:21:07;;;;;;;3.17;1.00;;;;;;;;;;6290511;22;20037;-82
2023/10/12 06:23:39;;;;;;;5.05;1.30;;;;;;;;;;6313574;22;20015;-82
2023/10/12 06:26:09;;;;;;;6.57;1.92;;;;;;;;;;6314113;22;20015;-82
2023/10/12 06:28:38;;;;;;;2.13;1.10;;;;;;;;;;6286399;22;20015;-82
2023/10/12 06:31:04;;;;;;;2.03;1.20;;;;;;;;;;6285453;22;20011;-82
2023/10/12 06:33:30;;;;;;;4.18;0.90;;;;;;;;;;6313737;22;20069;-82
2023/10/12 06:35:59;;;;;;;2.95;1.05;;;;;;;;;;6311493;22;20034;-82
2023/10/12 06:38:47;;;;;;;5.28;0.95;;;;;;;;;;6283732;22;20012;-82
2023/10/12 06:44:22;;;;;;;1.63;1.00;;;;;;;;;;6267397;22;20046;-82
2023/10/12 06:46:49;;;;;;;2.45;0.70;;;;;;;;;;6310923;22;20451;-82
2023/10/12 06:49:21;;;;;;;1.90;0.77;;;;;;;;;;6283678;22;20015;-82
2023/10/12 06:51:54;;;;;;;2.10;1.02;;;;;;;;;;6312023;22;20049;-82
2023/10/12 06:54:31;;;;;;;3.33;1.10;;;;;;;;;;6311253;22;20124;-82
2023/10/12 06:57:29;;;;;;;2.85;1.00;;;;;;;;;;6257854;22;20019;-82
2023/10/12 07:02:29;;;;;;;3.45;1.13;;;;;;;;;;6283451;22;20019;-82
2023/10/12 07:04:56;;;;;;;3.50;0.85;;;;;;;;;;6311082;22;20011;-82
2023/10/12 07:07:27;;;;;;;3.10;1.20;;;;;;;;;;6311773;22;20036;-82
2023/10/12 07:09:54;;;;;;;6.22;1.67;;;;;;;;;;6282965;22;20015;-82
2023/10/12 07:12:20;;;;;;;5.47;1.15;;;;;;;;;;6284138;22;20016;-82
2023/10/12 07:14:47;;;;;;;3.42;1.23;;;;;;;;;;6284510;22;20065;-82
2023/10/12 07:17:13;;;;;;;2.92;1.10;;;;;;;;;;6286420;22;20053;-82
2023/10/12 07:19:55;;;;;;;2.90;1.40;;;;;;;;;;6283507;22;20015;-82
2023/10/12 07:22:21;;;;;;;2.65;1.20;;;;;;;;;;6308392;22;20340;-82
2023/10/12 07:24:53;;;;;;;4.38;1.25;;;;;;;;;;6283362;22;20011;-82
2023/10/12 07:27:19;;;;;;;3.25;1.13;;;;;;;;;;6281400;22;20022;-82
2023/10/12 07:30:02;;;;;;;4.05;1.38;;;;;;;;;;6308954;22;20019;-82
2023/10/12 07:32:38;;;;;;;3.30;1.48;;;;;;;;;;6281131;22;20018;-82
2023/10/12 07:35:09;;;;;;;2.85;1.15;;;;;;;;;;6287348;22;20050;-82
2023/10/12 07:37:41;;;;;;;4.72;1.17;;;;;;;;;;6288990;22;20022;-82
2023/10/12 07:40:22;;;;;;;7.13;1.42;;;;;;;;;;6264538;22;20034;-82
2023/10/12 07:42:49;;;;;;;3.30;1.02;;;;;;;;;;6315879;22;20007;-82
2023/10/12 07:45:15;;;;;;;2.85;1.35;;;;;;;;;;6291190;22;20072;-82
2023/10/12 07:47:42;;;;;;;3.55;1.27;;;;;;;;;;6289756;22;20030;-82
2023/10/12 07:50:12;;;;;;;2.90;1.05;;;;;;;;;;6283660;22;20019;-82
2023/10/12 07:52:48;;;;;;;4.63;1.70;;;;;;;;;;6281257;22;20015;-82
2023/10/12 07:55:17;;;;;;;3.13;1.27;;;;;;;;;;6280929;22;20022;-82
2023/10/12 07:57:44;;;;;;;4.78;1.33;;;;;;;;;;6287840;22;20011;-82
2023/10/12 08:13:06;;;;;;;;;;;;;;;;;;6310138;22;20064;-83
2023/10/12 08:15:49;;;;;;;4.32;0.90;;;;;;;;;;6261488;22;19911;-83
2023/10/12 08:19:08;;;;;;;3.15;0.90;;;;;;;;;;6286313;22;20038;-83
2023/10/12 08:21:01;;;;;;;4.60;1.23;;;;;;;;;;6309345;22;20030;-83
2023/10/12 08:23:28;;;;;;;2.28;0.70;;;;;;;;;;6282415;22;20014;-83
2023/10/12 08:25:57;;;;;;;2.28;1.20;;;;;;;;;;6283119;22;20011;-83
2023/10/12 08:28:25;;;;;;;3.45;0.77;;;;;;;;;;6258721;22;20015;-83
2023/10/12 08:31:01;;;;;;;4.25;0.90;;;;;;;;;;6284790;22;20025;-83
2023/10/12 08:38:46;;;;;;;3.42;1.00;;;;;;;;;;6311915;22;20015;-82
2023/10/12 08:43:59;;;;;;;1.45;0.93;;;;;;;;;;6314349;22;20475;-82
2023/10/12 08:52:04;;;;;;;2.10;0.85;;;;;;;;;;6314099;22;21172;-82
2023/10/12 08:54:37;;;;;;;7.70;1.20;;;;;;;;;;6312092;22;20015;-82
2023/10/12 08:57:09;;;;;;;1.95;0.90;;;;;;;;;;6312348;22;20037;-82
2023/10/12 08:59:38;;;;;;;2.22;0.60;;;;;;;;;;6313345;22;20019;-81
2023/10/12 09:02:18;;;;;;;4.20;0.65;;;;;;;;;;6312910;22;20023;-81
2023/10/12 09:04:46;;;;;;;4.18;1.25;;;;;;;;;;6313220;22;20022;-81
2023/10/12 09:07:16;;;;;;;3.60;0.73;;;;;;;;;;6312386;22;20457;-82
2023/10/12 09:10:02;;;;;;;2.70;0.77;;;;;;;;;;6312936;22;20047;-81
2023/10/12 09:12:28;;;;;;;3.33;0.88;;;;;;;;;;6312884;22;20437;-81
2023/10/12 09:14:55;;;;;;;3.55;0.80;;;;;;;;;;6312273;22;20018;-81
2023/10/12 09:17:26;;;;;;;4.53;0.80;;;;;;;;;;6285240;22;20017;-81
2023/10/12 09:19:57;;;;;;;2.83;1.17;;;;;;;;;;6313898;22;20022;-81
2023/10/12 09:22:30;;;;;;;4.68;0.73;;;;;;;;;;6313079;22;20336;-81
2023/10/12 09:25:03;;;;;;;2.92;0.90;;;;;;;;;;6311813;22;20022;-81
2023/10/12 09:27:49;;;;;;;7.72;1.13;;;;;;;;;;6285841;22;20011;-81
2023/10/12 09:31:00;;;;;;;3.40;0.88;;;;;;;;;;6304099;22;20072;-81
2023/10/12 10:27:12;;;;;;;4.22;0.85;;;;;;;;;;6018376;23;21150;-80
2023/10/12 10:29:41;;;;;;;5.00;1.00;;;;;;;;;;6058580;23;20022;-80
2023/10/12 10:32:07;;;;;;;3.67;0.65;;;;;;;;;;6282262;22;20105;-80
2023/10/12 10:34:34;;;;;;;4.47;0.93;;;;;;;;;;6311000;22;20452;-80
2023/10/12 10:37:04;;;;;;;1.95;0.60;;;;;;;;;;6311641;22;20023;-79
2023/10/12 10:39:30;;;;;;;3.13;0.80;;;;;;;;;;6312380;22;20430;-79
2023/10/12 10:42:07;;;;;;;1.58;0.73;;;;;;;;;;6311840;22;20011;-79
2023/10/12 10:44:36;;;;;;;1.63;0.57;;;;;;;;;;6311525;22;20015;-79
2023/10/12 10:47:06;;;;;;;3.47;0.70;;;;;;;;;;6311677;22;20332;-79
2023/10/12 14:20:59;;;;;;;4.47;1.33;;;;;;;;;;6269411;22;20350;-79
2023/10/12 14:23:26;;;;;;;3.08;0.90;;;;;;;;;;6225089;23;20445;-79
2023/10/12 14:25:54;;;;;;;3.67;1.13;;;;;;;;;;6201958;23;20022;-79
2023/10/12 14:28:20;;;;;;;3.55;1.45;;;;;;;;;;6254046;23;20016;-80
2023/10/12 14:30:47;;;;;;;6.38;0.90;;;;;;;;;;6254357;23;20024;-80
2023/10/12 14:33:19;;;;;;;4.90;1.40;;;;;;;;;;6254437;23;20054;-80
2023/10/12 14:35:54;;;;;;;1.85;1.25;;;;;;;;;;6227561;23;20034;-80
2023/10/12 14:38:22;;;;;;;3.13;0.90;;;;;;;;;;6253633;23;20020;-80
2023/10/12 14:40:50;;;;;;;4.32;1.10;;;;;;;;;;6202339;23;20088;-80
2023/10/12 14:43:21;;;;;;;3.90;0.85;;;;;;;;;;6255743;23;20013;-80
2023/10/12 14:45:57;;;;;;;3.90;1.05;;;;;;;;;;6254090;23;20116;-80
2023/10/12 14:51:08;;;;;;;4.47;0.90;;;;;;;;;;6226123;22;20028;-80
2023/10/12 14:53:35;;;;;;;2.70;1.02;;;;;;;;;;6231652;22;20019;-80
2023/10/12 14:56:03;;;;;;;4.85;1.08;;;;;;;;;;6256695;22;20046;-81
2023/10/12 14:58:30;;;;;;;2.83;0.93;;;;;;;;;;6284946;22;20012;-80
2023/10/12 15:00:56;;;;;;;4.45;1.23;;;;;;;;;;6284607;22;20078;-80
2023/10/12 15:03:22;;;;;;;2.88;0.90;;;;;;;;;;6257268;22;20050;-81
2023/10/12 15:05:52;;;;;;;2.13;1.00;;;;;;;;;;6257588;22;20015;-81
2023/10/12 15:08:23;;;;;;;3.53;0.88;;;;;;;;;;6256260;22;20008;-81
2023/10/12 15:10:49;;;;;;;;;;;;;;;;;;6232229;22;20019;-81
2023/10/12 15:16:09;;;;;;;4.65;1.00;;;;;;;;;;6243720;22;20027;-80
2023/10/12 15:18:37;;;;;;;6.07;1.17;;;;;;;;;;6262633;22;20011;-81
2023/10/12 15:21:04;;;;;;;3.45;1.50;;;;;;;;;;6287564;22;20023;-81
2023/10/12 15:23:31;;;;;;;4.80;1.35;;;;;;;;;;6287839;22;20066;-81
2023/10/12 15:25:58;;;;;;;4.53;1.00;;;;;;;;;;6263573;22;20014;-81
2023/10/12 15:28:25;;;;;;;4.38;1.40;;;;;;;;;;6287450;22;20015;-81
2023/10/12 15:30:52;;;;;;;1.48;0.82;;;;;;;;;;6262084;22;20015;-81
2023/10/12 15:33:18;;;;;;;2.47;1.08;;;;;;;;;;6262723;22;20011;-81
2023/10/12 15:35:47;;;;;;;2.25;1.30;;;;;;;;;;6288819;22;20015;-81
2023/10/12 15:38:13;;;;;;;3.95;1.50;;;;;;;;;;6304889;22;20019;-81
2023/10/12 15:58:50;;;;;;;2.47;1.00;;;;;;;;;;6256359;22;20042;-79
2023/10/12 16:01:20;;;;;;;3.72;1.77;;;;;;;;;;6293122;22;20090;-79
2023/10/12 16:03:46;;;;;;;3.67;1.10;;;;;;;;;;6294889;22;20329;-79
2023/10/12 16:06:13;;;;;;;2.53;1.10;;;;;;;;;;6271834;22;20011;-80
2023/10/12 16:08:39;;;;;;;2.55;1.20;;;;;;;;;;6287961;22;20019;-80
2023/10/12 16:11:05;;;;;;;4.10;1.08;;;;;;;;;;6260832;22;20444;-80
2023/10/12 16:13:34;;;;;;;3.15;1.10;;;;;;;;;;6285248;22;20038;-79
2023/10/12 16:16:11;;;;;;;3.45;1.05;;;;;;;;;;6284504;22;20016;-80
2023/10/12 16:18:37;;;;;;;;;;;;;;;;;;6287181;22;20015;-80
2023/10/12 16:21:10;;;;;;;2.42;0.75;;;;;;;;;;6287345;22;19915;-80
2023/10/12 16:23:36;;;;;;;2.85;1.00;;;;;;;;;;6287359;22;20444;-80
2023/10/12 16:26:02;;;;;;;4.47;0.88;;;;;;;;;;6289356;22;20018;-80
2023/10/12 16:28:30;;;;;;;2.40;0.90;;;;;;;;;;6264692;22;20022;-80
2023/10/12 16:30:56;;;;;;;4.15;1.27;;;;;;;;;;6289711;22;20022;-80
2023/10/12 16:33:22;;;;;;;4.28;1.38;;;;;;;;;;6291401;22;20011;-80
2023/10/12 16:35:49;;;;;;;3.70;1.20;;;;;;;;;;6314991;22;20355;-80
2023/10/12 16:38:15;;;;;;;1.75;1.20;;;;;;;;;;6283068;22;20019;-80
2023/10/12 16:40:45;;;;;;;2.72;1.00;;;;;;;;;;6284346;22;20012;-80
2023/10/12 16:43:14;;;;;;;2.20;1.02;;;;;;;;;;6285848;22;20012;-80
2023/10/12 16:45:40;;;;;;;1.42;0.90;;;;;;;;;;6310377;22;20011;-80
2023/10/12 16:48:08;;;;;;;1.85;1.05;;;;;;;;;;6309815;22;20019;-79
2023/10/12 16:50:36;;;;;;;2.00;1.65;;;;;;;;;;6282053;22;20451;-79
2023/10/12 16:53:04;;;;;;;3.17;1.30;;;;;;;;;;6282265;22;20068;-79
2023/10/12 16:55:31;;;;;;;2.45;1.05;;;;;;;;;;6282084;22;20023;-79
2023/10/12 16:57:57;;;;;;;2.75;1.40;;;;;;;;;;6255161;22;20015;-79
2023/10/12 17:00:24;;;;;;;2.38;1.08;;;;;;;;;;6255461;22;20136;-79
2023/10/12 17:02:50;;;;;;;1.73;1.05;;;;;;;;;;6282289;22;20011;-79
2023/10/12 17:05:21;;;;;;;3.13;1.17;;;;;;;;;;6255665;22;20011;-79
2023/10/12 17:07:47;;;;;;;3.53;1.63;;;;;;;;;;6282848;22;20017;-79
2023/10/12 17:10:33;;;;;;;3.33;1.67;;;;;;;;;;6282566;22;20343;-79
2023/10/12 17:13:00;;;;;;;1.92;1.10;;;;;;;;;;6258385;22;20015;-79
2023/10/12 17:15:27;;;;;;;2.35;1.42;;;;;;;;;;6258248;22;20011;-79
2023/10/12 17:17:54;;;;;;;1.67;1.30;;;;;;;;;;6258170;22;20021;-79
2023/10/12 17:20:20;;;;;;;1.70;1.55;;;;;;;;;;6283124;22;20014;-79
2023/10/12 17:22:46;;;;;;;3.70;1.60;;;;;;;;;;6283643;22;20331;-79
2023/10/12 17:25:12;;;;;;;2.38;1.83;;;;;;;;;;6283640;22;20043;-79
2023/10/12 17:27:42;;;;;;;3.00;1.98;;;;;;;;;;6258107;22;20026;-79
2023/10/12 17:30:10;;;;;;;2.97;1.45;;;;;;;;;;6310151;22;20038;-79
2023/10/12 17:32:37;;;;;;;2.80;1.42;;;;;;;;;;6283222;22;20011;-79
2023/10/12 17:35:10;;;;;;;2.92;2.30;;;;;;;;;;6283836;22;20015;-79
2023/10/12 17:37:36;;;;;;;3.30;1.52;;;;;;;;;;6257785;22;20011;-79
2023/10/12 17:40:02;;;;;;;3.47;1.90;;;;;;;;;;6257478;22;20086;-79
2023/10/12 17:42:28;;;;;;;3.53;1.83;;;;;;;;;;6256800;22;20433;-79
2023/10/12 17:44:55;;;;;;;5.70;2.00;;;;;;;;;;6257232;22;20057;-79
2023/10/12 17:47:23;;;;;;;2.67;1.38;;;;;;;;;;6259777;22;20025;-81
2023/10/12 17:49:50;;;;;;;3.45;2.00;;;;;;;;;;6264829;22;20421;-79
2023/10/12 17:52:17;;;;;;;6.93;2.25;;;;;;;;;;6257666;23;20376;-79
2023/10/12 17:54:46;;;;;;;3.17;1.50;;;;;;;;;;6260049;23;20449;-79
2023/10/12 17:57:12;;;;;;;3.28;1.70;;;;;;;;;;6257263;23;20020;-79
2023/10/12 17:59:40;;;;;;;5.25;1.75;;;;;;;;;;6261963;23;20013;-79
2023/10/12 18:02:07;;;;;;;3.28;1.52;;;;;;;;;;6260109;23;20016;-78
2023/10/12 18:04:33;;;;;;;4.72;1.88;;;;;;;;;;6232984;23;20020;-79
2023/10/12 18:07:00;;;;;;;2.92;1.60;;;;;;;;;;6252604;23;20020;-79
2023/10/12 18:09:26;;;;;;;4.85;1.77;;;;;;;;;;6248034;23;20028;-80
2023/10/12 18:11:53;;;;;;;4.13;1.77;;;;;;;;;;6246955;23;20012;-79
2023/10/12 18:14:19;;;;;;;3.40;1.77;;;;;;;;;;6246679;23;20009;-79
2023/10/12 18:16:45;;;;;;;3.53;1.70;;;;;;;;;;6221890;23;20047;-79
2023/10/12 18:19:12;;;;;;;4.20;2.10;;;;;;;;;;6220840;23;20012;-79
2023/10/12 18:21:39;;;;;;;4.45;2.05;;;;;;;;;;6246246;23;20059;-79
2023/10/12 18:24:05;;;;;;;3.75;1.17;;;;;;;;;;6246278;23;20012;-79
2023/10/12 18:26:32;;;;;;;3.08;1.30;;;;;;;;;;6248245;23;20492;-80
2023/10/12 18:28:58;;;;;;;3.28;1.70;;;;;;;;;;6247545;23;20024;-79
2023/10/12 18:31:24;;;;;;;3.58;1.70;;;;;;;;;;6246104;23;20023;-79
2023/10/12 18:33:50;;;;;;;4.60;1.58;;;;;;;;;;6246820;23;20395;-79
2023/10/12 18:36:17;;;;;;;3.67;1.65;;;;;;;;;;6246660;23;20552;-79
2023/10/12 18:38:43;;;;;;;3.63;1.40;;;;;;;;;;6248848;22;20008;-81
2023/10/12 18:41:15;;;;;;;4.82;1.80;;;;;;;;;;6250258;23;20092;-81
2023/10/12 18:43:41;;;;;;;3.83;1.88;;;;;;;;;;6221107;23;20012;-80
2023/10/12 18:46:08;;;;;;;4.50;2.10;;;;;;;;;;6248572;22;20044;-80
2023/10/12 18:48:35;;;;;;;2.65;1.40;;;;;;;;;;6246978;23;20027;-80
2023/10/12 18:51:01;;;;;;;2.40;1.63;;;;;;;;;;6245122;22;20024;-79
2023/10/12 18:53:28;;;;;;;2.58;1.60;;;;;;;;;;6246925;23;20468;-79
2023/10/12 18:55:58;;;;;;;4.70;1.75;;;;;;;;;;6246644;23;20023;-79
2023/10/12 18:58:24;;;;;;;5.43;2.00;;;;;;;;;;6248308;23;20009;-79
2023/10/12 19:00:53;;;;;;;7.28;1.92;;;;;;;;;;6247857;23;20051;-79
2023/10/12 19:03:19;;;;;;;5.57;2.15;;;;;;;;;;6245885;23;20134;-79
2023/10/12 19:05:45;;;;;;;3.17;1.88;;;;;;;;;;6246611;23;20070;-79
2023/10/12 19:08:14;;;;;;;3.58;2.03;;;;;;;;;;6249207;23;20016;-80
2023/10/12 19:10:40;;;;;;;6.20;2.42;;;;;;;;;;6251186;22;20016;-80
2023/10/12 19:13:09;;;;;;;4.22;1.98;;;;;;;;;;6248784;23;20023;-80
2023/10/12 19:15:35;;;;;;;4.65;2.55;;;;;;;;;;6248019;23;20018;-80
2023/10/12 19:18:05;;;;;;;5.93;2.55;;;;;;;;;;6222257;23;20110;-80
2023/10/12 19:20:31;;;;;;;6.53;2.50;;;;;;;;;;6223589;23;20082;-80
2023/10/12 19:22:57;;;;;;;4.05;2.50;;;;;;;;;;6247532;23;20441;-80
2023/10/12 19:25:23;;;;;;;5.68;2.70;;;;;;;;;;6247920;23;20023;-80
2023/10/12 19:27:49;;;;;;;4.50;3.15;;;;;;;;;;6248584;23;20074;-80
2023/10/12 19:30:15;;;;;;;4.68;2.97;;;;;;;;;;6248757;23;20051;-80
2023/10/12 19:32:41;;;;;;;6.38;3.00;;;;;;;;;;6249134;23;20020;-81
2023/10/12 19:35:11;;;;;;;8.15;3.60;;;;;;;;;;6247600;23;20337;-81
2023/10/12 19:37:40;;;;;;;6.07;3.53;;;;;;;;;;6249136;23;20063;-81
2023/10/12 19:40:16;;;;;;;5.88;3.45;;;;;;;;;;6249564;23;20392;-81
2023/10/12 19:43:00;;;;;;;7.47;4.05;;;;;;;;;;6250108;23;20421;-81
2023/10/12 19:45:28;;;;;;;9.52;4.15;;;;;;;;;;6251971;23;20018;-81
2023/10/12 19:47:59;;;;;;;6.68;4.20;;;;;;;;;;6227078;23;20024;-80
2023/10/12 19:50:26;;;;;;;8.10;4.43;;;;;;;;;;6253411;22;20020;-80
2023/10/12 19:52:52;;;;;;;10.50;4.97;;;;;;;;;;6254053;23;20052;-80
2023/10/12 19:55:19;;;;;;;9.60;4.90;;;;;;;;;;6256613;23;20063;-80
2023/10/12 19:57:45;;;;;;;11.43;5.20;;;;;;;;;;6254285;23;20095;-80
2023/10/12 20:00:24;;;;;;;9.45;5.72;;;;;;;;;;6252557;22;20020;-80
2023/10/12 20:02:54;;;;;;;9.57;5.05;;;;;;;;;;6255566;23;20012;-80
2023/10/12 20:05:24;;;;;;;10.55;5.53;;;;;;;;;;6230703;23;20042;-80
2023/10/12 20:07:50;;;;;;;8.75;5.35;;;;;;;;;;6254341;23;20024;-80
2023/10/12 20:10:17;;;;;;;8.75;5.57;;;;;;;;;;6262192;23;20016;-80
2023/10/12 20:12:43;;;;;;;7.88;5.50;;;;;;;;;;6261925;23;20020;-80
2023/10/12 20:15:12;;;;;;;9.00;5.80;;;;;;;;;;6248653;23;20071;-80
2023/10/12 20:17:42;;;;;;;9.30;5.82;;;;;;;;;;6248574;23;20027;-80
2023/10/12 20:20:08;;;;;;;9.93;5.70;;;;;;;;;;6248171;23;20054;-80
2023/10/12 20:22:37;;;;;;;9.95;5.90;;;;;;;;;;6223278;23;20023;-80
2023/10/12 20:25:05;;;;;;;11.85;7.32;;;;;;;;;;6247821;23;20020;-81
2023/10/12 20:27:34;;;;;;;9.93;5.88;;;;;;;;;;6248102;23;20083;-81
2023/10/12 20:30:00;;;;;;;10.40;6.97;;;;;;;;;;6248573;23;20008;-81
2023/10/12 20:32:26;;;;;;;11.02;7.25;;;;;;;;;;6247596;23;20016;-81
2023/10/12 20:34:52;;;;;;;12.00;6.88;;;;;;;;;;6249936;23;20061;-81
2023/10/12 20:37:18;;;;;;;11.93;6.78;;;;;;;;;;6247364;23;20016;-81
2023/10/12 20:39:44;;;;;;;12.63;6.45;;;;;;;;;;6248626;23;20008;-81
2023/10/12 20:42:11;;;;;;;12.60;7.35;;;;;;;;;;6223217;23;20016;-81
2023/10/12 20:44:37;;;;;;;12.45;8.13;;;;;;;;;;6250578;23;20023;-81
2023/10/12 20:47:05;;;;;;;13.25;7.78;;;;;;;;;;6248534;23;20020;-81
2023/10/12 20:49:34;;;;;;;16.33;8.05;;;;;;;;;;6223990;23;20020;-81
2023/10/12 20:51:59;;;;;;;16.55;7.65;;;;;;;;;;6252307;22;20015;-81
2023/10/12 20:54:26;;;;;;;15.32;7.90;;;;;;;;;;6251569;23;20065;-81
2023/10/12 20:56:52;;;;;;;14.25;8.27;;;;;;;;;;6251584;22;20031;-81
2023/10/12 20:59:25;;;;;;;15.75;7.88;;;;;;;;;;6249545;23;20023;-81
2023/10/12 21:02:00;;;;;;;16.33;9.18;;;;;;;;;;6251793;22;20477;-81
2023/10/12 21:04:30;;;;;;;16.00;8.93;;;;;;;;;;6224566;23;20048;-81
2023/10/12 21:07:03;;;;;;;15.32;7.95;;;;;;;;;;6201422;23;20008;-81
2023/10/12 21:09:33;;;;;;;17.40;9.57;;;;;;;;;;6228500;23;20012;-81